This is the latest recevied weather packets stored in our database for station/object DL8BNG-13. If no packets are shown the sender has not sent any weather packets the latest 10 day(s).
| Time | Temp. | Humidity | Pressure | Rain* | Wind** | Luminosity | Snow |
|---|---|---|---|---|---|---|---|
| 1777578303 | 10° C | 44% | - | 0 mm | - | - | - |
| 1777577403 | 10.56° C | 42% | - | 0 mm | - | - | - |
| 1777576502 | 11.11° C | 39% | - | 0 mm | - | - | - |
| 1777575602 | 11.67° C | 37% | - | 0 mm | - | - | - |
| 1777574703 | 13.89° C | 34% | - | 0 mm | - | - | - |
| 1777573803 | 15° C | 30% | - | 0 mm | - | - | - |
| 1777572902 | 15.56° C | 29% | - | 0 mm | - | - | - |
| 1777572002 | 15.56° C | 27% | - | 0 mm | - | - | - |
| 1777571103 | 16.11° C | 27% | - | 0 mm | - | - | - |
| 1777570202 | 16.67° C | 25% | - | 0 mm | - | - | - |
| 1777569302 | 17.22° C | 23% | - | 0 mm | - | - | - |
| 1777568402 | 17.22° C | 22% | - | 0 mm | - | - | - |
| 1777567502 | 18.33° C | 22% | - | 0 mm | - | - | - |
| 1777566602 | 18.33° C | 21% | - | 0 mm | - | - | - |
| 1777565701 | 18.89° C | 21% | - | 0 mm | - | - | - |
| 1777564802 | 18.89° C | 20% | - | 0 mm | - | - | - |
| 1777563902 | 18.89° C | 20% | - | 0 mm | - | - | - |
| 1777563003 | 19.44° C | 20% | - | 0 mm | - | - | - |
| 1777562102 | 18.89° C | 20% | - | 0 mm | - | - | - |
| 1777561202 | 18.89° C | 21% | - | 0 mm | - | - | - |
| 1777560302 | 18.89° C | 21% | - | 0 mm | - | - | - |
| 1777559402 | 18.89° C | 22% | - | 0 mm | - | - | - |
| 1777558503 | 18.89° C | 23% | - | 0 mm | - | - | - |
| 1777557603 | 18.89° C | 23% | - | 0 mm | - | - | - |
| 1777556702 | 17.78° C | 23% | - | 0 mm | - | - | - |
* Rain since midnight (hover to see other rain measurements)
** Current wind speed in m/s (hover to see current wind gust speed)